createdAt,value
2023-02-08T00:00:28.483Z,101708.78
2023-02-08T00:02:56.511Z,101718.25
2023-02-08T00:05:24.492Z,101710.31
2023-02-08T00:07:52.463Z,101710.09
2023-02-08T00:10:20.455Z,101717.06
2023-02-08T00:12:48.420Z,101734.53
2023-02-08T00:15:17.836Z,101732.56
2023-02-08T00:17:45.756Z,101737.44
2023-02-08T00:20:13.827Z,101735.41
2023-02-08T00:22:41.753Z,101742.06
2023-02-08T00:25:09.953Z,101737.56
2023-02-08T00:27:37.932Z,101744.38
2023-02-08T00:30:06.745Z,101746.94
2023-02-08T00:32:36.075Z,101738.06
2023-02-08T00:35:04.007Z,101744.38
2023-02-08T00:37:31.936Z,101748.84
2023-02-08T00:40:02.580Z,101750.44
2023-02-08T00:42:30.556Z,101754.50
2023-02-08T00:44:58.563Z,101765.22
2023-02-08T00:47:26.541Z,101765.06
2023-02-08T00:49:56.010Z,101770.34
2023-02-08T00:52:23.985Z,101771.97
2023-02-08T00:54:51.941Z,101778.25
2023-02-08T00:57:19.904Z,101769.84
2023-02-08T00:59:47.846Z,101774.31
2023-02-08T01:02:15.832Z,101767.41
2023-02-08T01:04:43.818Z,101770.16
2023-02-08T01:07:13.195Z,101767.47
2023-02-08T01:09:41.334Z,101770.16
2023-02-08T01:12:09.270Z,101776.94
2023-02-08T01:14:38.448Z,101771.44
2023-02-08T01:17:06.403Z,101769.72
2023-02-08T01:19:34.373Z,101768.22
2023-02-08T01:22:02.341Z,101771.56
2023-02-08T01:24:31.664Z,101775.00
2023-02-08T01:26:59.660Z,101771.25
2023-02-08T01:29:27.569Z,101762.56
2023-02-08T01:31:55.597Z,101764.34
2023-02-08T01:34:23.510Z,101760.03
2023-02-08T01:36:51.467Z,101757.91
2023-02-08T01:39:19.452Z,101750.78
2023-02-08T01:41:48.791Z,101756.97
2023-02-08T01:44:54.113Z,101756.16
2023-02-08T01:47:22.024Z,101751.72
2023-02-08T01:49:49.992Z,101759.81
2023-02-08T01:52:18.749Z,101747.44
2023-02-08T01:54:49.834Z,101769.94
2023-02-08T01:57:19.231Z,101768.22
2023-02-08T01:59:49.727Z,101776.94
2023-02-08T02:02:18.483Z,101775.44
2023-02-08T02:04:46.451Z,101775.53
2023-02-08T02:07:14.380Z,101778.34
2023-02-08T02:09:45.365Z,101779.91
2023-02-08T02:12:13.342Z,101786.84
2023-02-08T02:14:43.341Z,101784.16
2023-02-08T02:17:11.937Z,101781.44
2023-02-08T02:19:44.507Z,101788.44
2023-02-08T02:22:24.765Z,101791.03
2023-02-08T02:25:15.661Z,101794.47
2023-02-08T02:27:53.367Z,101795.41
2023-02-08T02:31:04.790Z,101800.34
2023-02-08T02:33:39.528Z,101805.13
2023-02-08T02:36:10.591Z,101810.63
2023-02-08T02:38:44.044Z,101811.22
2023-02-08T02:41:38.934Z,101799.66
2023-02-08T02:44:06.071Z,101818.44
2023-02-08T02:46:38.924Z,101825.50
2023-02-08T02:49:09.976Z,101834.09
2023-02-08T02:51:40.013Z,101834.91
2023-02-08T02:54:09.603Z,101840.94
2023-02-08T02:56:39.267Z,101814.94
2023-02-08T02:59:07.805Z,101840.91
2023-02-08T03:01:36.312Z,101844.78
2023-02-08T03:04:14.956Z,101835.72
2023-02-08T03:06:50.110Z,101837.53
2023-02-08T03:09:36.599Z,101841.22
2023-02-08T03:12:07.864Z,101808.47
2023-02-08T03:14:37.177Z,101836.13
2023-02-08T03:17:15.781Z,101844.09
2023-02-08T03:19:48.057Z,101838.00
2023-02-08T03:22:16.805Z,101839.91
2023-02-08T03:24:50.383Z,101856.63
2023-02-08T03:27:21.616Z,101857.59
2023-02-08T03:29:51.575Z,101855.16
2023-02-08T03:32:20.705Z,101860.31
2023-02-08T03:34:52.692Z,101866.50
2023-02-08T03:37:22.485Z,101857.53
2023-02-08T03:39:50.654Z,101866.50
2023-02-08T03:42:20.335Z,101862.50
2023-02-08T03:44:49.495Z,101874.69
2023-02-08T03:47:18.734Z,101876.50
2023-02-08T03:49:46.967Z,101879.88
2023-02-08T03:52:16.304Z,101882.59
2023-02-08T03:54:46.170Z,101897.63
2023-02-08T03:57:16.269Z,101895.88
2023-02-08T03:59:45.205Z,101888.88
2023-02-08T04:02:14.943Z,101896.84
2023-02-08T04:04:44.499Z,101870.22
2023-02-08T04:07:12.455Z,101905.13
2023-02-08T04:09:41.756Z,101914.03
2023-02-08T04:12:09.909Z,101916.47
2023-02-08T04:14:37.824Z,101905.44
2023-02-08T04:17:05.745Z,101920.13
2023-02-08T04:19:33.723Z,101921.13
2023-02-08T04:22:01.690Z,101922.13
2023-02-08T04:24:29.661Z,101928.28
2023-02-08T04:26:58.966Z,101932.75
2023-02-08T04:29:26.939Z,101939.34
2023-02-08T04:31:54.894Z,101942.72
2023-02-08T04:34:23.136Z,101944.16
2023-02-08T04:36:51.065Z,101941.47
2023-02-08T04:39:19.020Z,101947.41
2023-02-08T04:41:46.988Z,101958.16
2023-02-08T04:44:16.354Z,101961.78
2023-02-08T04:46:44.373Z,101967.06
2023-02-08T04:49:12.388Z,101971.22
2023-02-08T04:51:40.354Z,101977.41
2023-02-08T04:54:08.375Z,101974.16
2023-02-08T04:56:36.817Z,101983.66
2023-02-08T04:59:04.848Z,101972.34
2023-02-08T05:01:34.247Z,101985.84
2023-02-08T05:04:02.212Z,101984.59
2023-02-08T05:06:30.849Z,101984.69
2023-02-08T05:08:58.807Z,101991.78
2023-02-08T05:11:26.809Z,102004.03
2023-02-08T05:13:54.817Z,101995.22
2023-02-08T05:16:22.869Z,102005.69
2023-02-08T05:18:52.199Z,102009.03
2023-02-08T05:21:20.167Z,102009.16
2023-02-08T05:23:48.129Z,102012.59
2023-02-08T05:26:16.076Z,102023.03
2023-02-08T05:28:44.034Z,102021.50
2023-02-08T05:31:12.701Z,102023.25
2023-02-08T05:33:40.750Z,102028.41
2023-02-08T05:36:10.645Z,102024.16
2023-02-08T05:38:38.707Z,102028.41
2023-02-08T05:41:06.966Z,102045.78
2023-02-08T05:43:34.898Z,102052.41
2023-02-08T05:46:02.841Z,102050.00
2023-02-08T05:48:31.535Z,102056.13
2023-02-08T05:50:59.540Z,102059.66
2023-02-08T05:53:28.898Z,102066.22
2023-02-08T05:55:57.813Z,102067.84
2023-02-08T05:58:25.911Z,102069.22
2023-02-08T06:00:54.132Z,102074.50
2023-02-08T06:03:22.076Z,102075.94
2023-02-08T06:05:50.005Z,102075.72
2023-02-08T06:08:17.975Z,102089.75
2023-02-08T06:10:49.520Z,102089.53
2023-02-08T06:13:17.473Z,102095.41
2023-02-08T06:15:45.443Z,102099.88
2023-02-08T06:18:13.482Z,102099.09
2023-02-08T06:20:41.782Z,102098.88
2023-02-08T06:23:09.904Z,102103.16
2023-02-08T06:25:37.849Z,102105.28
2023-02-08T06:28:10.732Z,102107.63
2023-02-08T06:30:39.162Z,102110.78
2023-02-08T06:33:07.412Z,102122.44
2023-02-08T06:35:35.388Z,102123.19
2023-02-08T06:38:03.304Z,102123.84
2023-02-08T06:40:31.526Z,102128.59
2023-02-08T06:42:59.476Z,102133.44
2023-02-08T06:45:28.969Z,102130.09
2023-02-08T06:47:56.943Z,102132.09
2023-02-08T06:50:24.929Z,102139.06
2023-02-08T06:52:52.890Z,102145.31
2023-02-08T06:55:20.828Z,102136.78
2023-02-08T06:57:48.781Z,102143.34
2023-02-08T07:00:17.052Z,102149.50
2023-02-08T07:02:47.342Z,102144.34
2023-02-08T07:05:15.372Z,102147.03
2023-02-08T07:07:43.304Z,102141.41
2023-02-08T07:10:11.323Z,102143.38
2023-02-08T07:12:39.244Z,102146.63
2023-02-08T07:15:07.684Z,102153.50
2023-02-08T07:17:35.642Z,102150.91
2023-02-08T07:20:05.119Z,102150.66
2023-02-08T07:22:33.066Z,102148.75
2023-02-08T07:25:01.049Z,102157.41
2023-02-08T07:27:29.027Z,102157.16
2023-02-08T07:29:56.957Z,102150.75
2023-02-08T07:32:24.951Z,102159.22
2023-02-08T07:34:54.077Z,102150.25
2023-02-08T07:37:23.367Z,102156.72
2023-02-08T07:39:51.309Z,102159.19
2023-02-08T07:42:19.274Z,102162.38
2023-02-08T07:44:47.266Z,102167.47
2023-02-08T07:47:15.235Z,102163.03
2023-02-08T07:49:43.192Z,102170.00
2023-02-08T07:52:11.106Z,102167.88
2023-02-08T07:54:40.517Z,102169.94
2023-02-08T07:57:08.446Z,102177.16
2023-02-08T07:59:36.420Z,102175.69
2023-02-08T08:02:04.560Z,102168.09
2023-02-08T08:04:32.511Z,102176.31
2023-02-08T08:07:00.488Z,102167.94
2023-02-08T08:09:28.607Z,102176.19
2023-02-08T08:11:57.949Z,102172.22
2023-02-08T08:14:25.893Z,102174.53
2023-02-08T08:16:53.870Z,102174.81
2023-02-08T08:19:21.795Z,102183.56
2023-02-08T08:21:49.869Z,102183.56
2023-02-08T08:24:17.823Z,102187.66
2023-02-08T08:26:45.795Z,102180.44
2023-02-08T08:29:15.088Z,102187.81
2023-02-08T08:31:43.971Z,102188.09
2023-02-08T08:34:12.003Z,102197.44
2023-02-08T08:36:39.952Z,102196.00
2023-02-08T08:39:07.916Z,102202.91
2023-02-08T08:41:37.049Z,102197.59
2023-02-08T08:44:05.145Z,102203.72
2023-02-08T08:46:34.569Z,102203.53
2023-02-08T08:49:03.208Z,102207.53
2023-02-08T08:51:35.185Z,102207.59
2023-02-08T08:54:03.173Z,102207.78
2023-02-08T08:56:31.101Z,102204.25
2023-02-08T08:58:59.115Z,102211.72
2023-02-08T09:01:27.091Z,102215.03
2023-02-08T09:03:56.448Z,102205.72
2023-02-08T09:06:24.370Z,102210.91
2023-02-08T09:08:52.317Z,102206.72
2023-02-08T09:11:20.308Z,102213.81
2023-02-08T09:13:51.700Z,102230.72
2023-02-08T09:16:19.905Z,102225.78
2023-02-08T09:18:47.928Z,102238.09
2023-02-08T09:21:18.332Z,102235.59
2023-02-08T09:23:47.484Z,102233.84
2023-02-08T09:26:16.443Z,102231.63
2023-02-08T09:28:44.472Z,102211.75
2023-02-08T09:31:13.347Z,102236.06
2023-02-08T09:33:41.383Z,102243.38
2023-02-08T09:36:10.184Z,102244.28
2023-02-08T09:38:39.636Z,102238.63
2023-02-08T09:41:14.412Z,102233.34
2023-02-08T09:43:45.725Z,102231.94
2023-02-08T09:46:17.214Z,102229.63
2023-02-08T09:48:45.376Z,102235.00
2023-02-08T09:51:19.547Z,102230.31
2023-02-08T09:53:51.710Z,102223.91
2023-02-08T09:56:21.585Z,102207.22
2023-02-08T09:58:51.035Z,102219.06
2023-02-08T10:01:20.236Z,102214.88
2023-02-08T10:03:48.339Z,102217.94
2023-02-08T10:06:17.047Z,102212.50
2023-02-08T10:08:45.598Z,102217.66
2023-02-08T10:11:30.424Z,102210.38
2023-02-08T10:14:05.921Z,102197.38
2023-02-08T10:16:44.175Z,102211.00
2023-02-08T10:19:15.830Z,102216.50
2023-02-08T10:21:50.737Z,102222.16
2023-02-08T10:24:32.642Z,102223.56
2023-02-08T10:27:05.360Z,102220.63
2023-02-08T10:29:44.155Z,102225.06
2023-02-08T10:32:20.162Z,102216.56
2023-02-08T10:34:50.221Z,102196.13
2023-02-08T10:37:20.664Z,102222.50
2023-02-08T10:39:49.912Z,102212.81
2023-02-08T10:42:22.549Z,102185.59
2023-02-08T10:45:06.551Z,102208.53
2023-02-08T10:47:43.726Z,102219.28
2023-02-08T10:50:18.422Z,102231.34
2023-02-08T10:52:49.330Z,102222.72
2023-02-08T10:55:19.649Z,102221.00
2023-02-08T10:57:52.680Z,102225.75
2023-02-08T11:00:36.350Z,102223.91
2023-02-08T11:03:10.160Z,102232.28
2023-02-08T11:05:42.842Z,102224.72
2023-02-08T11:08:21.903Z,102226.09
2023-02-08T11:11:02.764Z,102220.84
2023-02-08T11:13:36.984Z,102203.66
2023-02-08T11:16:17.612Z,102230.25
2023-02-08T11:18:50.746Z,102222.16
2023-02-08T11:21:27.520Z,102221.53
2023-02-08T11:23:57.843Z,102222.16
2023-02-08T11:26:33.987Z,102200.66
2023-02-08T11:29:06.182Z,102220.41
2023-02-08T11:31:38.640Z,102223.34
2023-02-08T11:34:07.367Z,102226.91
2023-02-08T11:36:36.014Z,102217.03
2023-02-08T11:39:04.762Z,102222.22
2023-02-08T11:41:32.949Z,102214.06
2023-02-08T11:44:04.522Z,102222.97
2023-02-08T11:46:36.758Z,102194.00
2023-02-08T11:49:04.790Z,102226.41
2023-02-08T11:51:34.567Z,102224.81
2023-02-08T11:54:02.592Z,102217.28
2023-02-08T11:56:31.339Z,102215.13
2023-02-08T11:59:06.845Z,102220.50
2023-02-08T12:01:35.566Z,102224.81
2023-02-08T12:04:04.621Z,102224.94
2023-02-08T12:06:46.424Z,102214.72
2023-02-08T12:09:21.324Z,102231.88
2023-02-08T12:11:49.884Z,102221.38
2023-02-08T12:14:26.126Z,102223.44
2023-02-08T12:17:07.964Z,102229.69
2023-02-08T12:20:04.452Z,102227.91
2023-02-08T12:22:32.737Z,102225.56
2023-02-08T12:25:07.465Z,102222.66
2023-02-08T12:27:41.090Z,102228.00
2023-02-08T12:30:14.167Z,102230.25
2023-02-08T12:33:07.984Z,102232.63
2023-02-08T12:36:02.794Z,102229.84
2023-02-08T12:38:57.392Z,102226.06
2023-02-08T12:41:30.152Z,102230.31
2023-02-08T12:44:02.365Z,102242.63
2023-02-08T12:46:41.278Z,102246.06
2023-02-08T12:49:18.431Z,102250.41
2023-02-08T12:51:49.549Z,102250.78
2023-02-08T12:54:19.166Z,102237.44
2023-02-08T12:57:00.322Z,102257.34
2023-02-08T12:59:33.871Z,102249.59
2023-02-08T13:02:05.087Z,102249.00
2023-02-08T13:04:34.479Z,102249.69
2023-02-08T13:07:04.183Z,102246.94
2023-02-08T13:09:39.897Z,102256.75
2023-02-08T13:12:09.671Z,102264.31
2023-02-08T13:14:39.152Z,102264.63
2023-02-08T13:17:15.909Z,102266.28
2023-02-08T13:19:59.628Z,102271.00
2023-02-08T13:22:28.379Z,102279.00
2023-02-08T13:25:08.770Z,102278.41
2023-02-08T13:27:37.095Z,102281.84
2023-02-08T13:30:05.500Z,102279.88
2023-02-08T13:32:36.539Z,102280.84
2023-02-08T13:35:06.783Z,102275.72
2023-02-08T13:37:35.704Z,102267.66
2023-02-08T13:40:05.881Z,102280.69
2023-02-08T13:42:36.296Z,102283.78
2023-02-08T13:45:05.061Z,102284.66
2023-02-08T13:47:35.493Z,102256.00
2023-02-08T13:50:07.511Z,102284.66
2023-02-08T13:52:49.518Z,102288.47
2023-02-08T13:55:43.204Z,102284.66
2023-02-08T13:58:39.444Z,102293.72
2023-02-08T14:01:25.381Z,102299.22
2023-02-08T14:04:32.893Z,102300.56
2023-02-08T14:07:05.671Z,102291.94
2023-02-08T14:09:44.068Z,102293.94
2023-02-08T14:12:15.159Z,102292.78
2023-02-08T14:14:43.145Z,102294.41
2023-02-08T14:17:22.268Z,102291.41
2023-02-08T14:19:57.954Z,102296.66
2023-02-08T14:22:27.565Z,102276.88
2023-02-08T14:25:02.235Z,102296.13
2023-02-08T14:27:32.552Z,102301.53
2023-02-08T14:30:01.166Z,102297.59
2023-02-08T14:32:30.140Z,102294.94
2023-02-08T14:35:02.278Z,102302.19
2023-02-08T14:37:32.588Z,102302.09
2023-02-08T14:40:35.146Z,102308.44
2023-02-08T14:43:03.554Z,102300.38
2023-02-08T14:45:32.366Z,102303.25
2023-02-08T14:48:05.280Z,102305.09
2023-02-08T14:50:55.624Z,102303.56
2023-02-08T14:53:36.889Z,102312.56
2023-02-08T14:56:07.776Z,102317.47
2023-02-08T14:58:36.676Z,102312.22
2023-02-08T15:01:07.512Z,102314.44
2023-02-08T15:03:35.523Z,102298.09
2023-02-08T15:06:33.617Z,102332.03
2023-02-08T15:09:02.935Z,102332.41
2023-02-08T15:11:32.726Z,102333.34
2023-02-08T15:14:02.740Z,102331.66
2023-02-08T15:16:35.251Z,102323.97
2023-02-08T15:19:04.073Z,102328.31
2023-02-08T15:21:36.637Z,102329.22
2023-02-08T15:24:07.941Z,102333.59
2023-02-08T15:26:36.169Z,102323.97
2023-02-08T15:29:04.230Z,102329.97
2023-02-08T15:31:33.774Z,102327.59
2023-02-08T15:34:02.474Z,102325.66
2023-02-08T15:36:31.512Z,102322.06
2023-02-08T15:39:00.432Z,102330.91
2023-02-08T15:41:30.772Z,102334.44
2023-02-08T15:44:14.432Z,102336.25
2023-02-08T15:46:43.939Z,102330.03
2023-02-08T15:49:13.636Z,102335.31
2023-02-08T15:51:41.572Z,102340.59
2023-02-08T15:54:12.707Z,102338.88
2023-02-08T15:56:42.643Z,102345.81
2023-02-08T15:59:15.612Z,102345.63
2023-02-08T16:01:45.848Z,102343.78
2023-02-08T16:04:13.775Z,102349.16
2023-02-08T16:06:46.322Z,102335.59
2023-02-08T16:09:15.017Z,102356.38
2023-02-08T16:11:46.442Z,102360.66
2023-02-08T16:14:15.110Z,102357.00
2023-02-08T16:16:44.108Z,102360.47
2023-02-08T16:19:21.338Z,102367.03
2023-02-08T16:21:49.284Z,102372.47
2023-02-08T16:24:25.420Z,102370.63
2023-02-08T16:26:58.867Z,102372.22
2023-02-08T16:29:28.192Z,102374.97
2023-02-08T16:32:03.518Z,102376.09
2023-02-08T16:34:33.320Z,102373.31
2023-02-08T16:37:01.579Z,102377.63
2023-02-08T16:39:53.186Z,102376.16
2023-02-08T16:42:29.340Z,102382.56
2023-02-08T16:45:14.221Z,102376.59
2023-02-08T16:47:42.781Z,102381.81
2023-02-08T16:50:11.678Z,102381.56
2023-02-08T16:52:39.628Z,102384.13
2023-02-08T16:55:08.291Z,102379.72
2023-02-08T16:57:42.460Z,102376.41
2023-02-08T17:00:21.631Z,102387.22
2023-02-08T17:02:49.633Z,102384.31
2023-02-08T17:05:17.853Z,102381.72
2023-02-08T17:07:45.831Z,102386.22
2023-02-08T17:10:18.851Z,102388.03
2023-02-08T17:12:48.127Z,102387.09
2023-02-08T17:15:16.300Z,102390.88
2023-02-08T17:17:44.247Z,102389.03
2023-02-08T17:20:20.962Z,102396.78
2023-02-08T17:22:48.931Z,102394.38
2023-02-08T17:25:19.161Z,102395.06
2023-02-08T17:27:53.139Z,102387.78
2023-02-08T17:30:23.095Z,102397.53
2023-02-08T17:32:51.074Z,102391.31
2023-02-08T17:35:19.277Z,102398.41
2023-02-08T17:37:47.227Z,102393.97
2023-02-08T17:40:15.108Z,102392.09
2023-02-08T17:42:43.079Z,102390.53
2023-02-08T17:45:12.555Z,102401.00
2023-02-08T17:47:41.792Z,102395.72
2023-02-08T17:50:10.510Z,102400.84
2023-02-08T17:52:38.860Z,102398.88
2023-02-08T17:55:07.472Z,102405.00
2023-02-08T17:57:35.926Z,102402.31
2023-02-08T18:00:04.170Z,102398.75
2023-02-08T18:02:33.565Z,102398.88
2023-02-08T18:05:01.555Z,102409.31
2023-02-08T18:07:29.557Z,102400.69
2023-02-08T18:09:57.579Z,102406.03
2023-02-08T18:12:25.596Z,102403.31
2023-02-08T18:14:53.600Z,102401.69
2023-02-08T18:17:21.531Z,102402.75
2023-02-08T18:19:52.394Z,102414.56
2023-02-08T18:22:21.805Z,102409.91
2023-02-08T18:24:50.705Z,102409.84
2023-02-08T18:27:18.792Z,102415.03
2023-02-08T18:29:46.867Z,102412.44
2023-02-08T18:32:14.914Z,102418.59
2023-02-08T18:34:45.279Z,102418.59
2023-02-08T18:37:14.637Z,102430.94
2023-02-08T18:39:42.612Z,102428.38
2023-02-08T18:42:13.915Z,102431.25
2023-02-08T18:44:41.909Z,102431.50
2023-02-08T18:47:09.997Z,102415.22
2023-02-08T18:49:40.941Z,102430.00
2023-02-08T18:52:09.745Z,102430.09
2023-02-08T18:54:39.470Z,102429.16
2023-02-08T18:57:09.628Z,102432.69
2023-02-08T18:59:37.760Z,102438.91
2023-02-08T19:02:07.139Z,102437.06
2023-02-08T19:04:37.822Z,102436.22
2023-02-08T19:07:05.800Z,102435.44
2023-02-08T19:09:35.983Z,102436.38
2023-02-08T19:12:05.656Z,102446.84
2023-02-08T19:14:33.655Z,102437.25
2023-02-08T19:17:02.208Z,102443.53
2023-02-08T19:19:30.157Z,102442.47
2023-02-08T19:21:58.088Z,102436.94
2023-02-08T19:24:26.033Z,102433.41
2023-02-08T19:26:53.969Z,102437.81
2023-02-08T19:29:23.452Z,102438.69
2023-02-08T19:31:51.472Z,102433.34
2023-02-08T19:34:19.511Z,102431.59
2023-02-08T19:36:49.300Z,102395.28
2023-02-08T19:39:18.507Z,102431.59
2023-02-08T19:41:46.629Z,102435.22
2023-02-08T19:44:15.261Z,102439.56
2023-02-08T19:46:48.216Z,102438.63
2023-02-08T19:49:16.188Z,102435.06
2023-02-08T19:51:44.151Z,102433.38
2023-02-08T19:54:13.379Z,102434.09
2023-02-08T19:56:41.402Z,102427.88
2023-02-08T19:59:21.829Z,102433.13
2023-02-08T20:01:51.222Z,102431.44
2023-02-08T20:04:19.329Z,102415.53
2023-02-08T20:06:47.388Z,102399.06
2023-02-08T20:09:16.529Z,102428.38
2023-02-08T20:11:56.450Z,102431.03
2023-02-08T20:14:25.521Z,102427.47
2023-02-08T20:16:55.413Z,102429.31
2023-02-08T20:19:23.436Z,102436.25
2023-02-08T20:21:51.443Z,102438.84
2023-02-08T20:24:19.572Z,102423.78
2023-02-08T20:26:48.009Z,102432.69
2023-02-08T20:29:16.165Z,102408.59
2023-02-08T20:31:46.660Z,102408.59
2023-02-08T20:34:16.671Z,102435.50
2023-02-08T20:36:54.514Z,102436.47
2023-02-08T20:39:30.412Z,102425.84
2023-02-08T20:41:58.395Z,102424.84
2023-02-08T20:44:28.529Z,102424.75
2023-02-08T20:46:56.550Z,102415.03
2023-02-08T20:49:26.970Z,102423.03
2023-02-08T20:51:55.053Z,102415.94
2023-02-08T20:54:24.728Z,102414.22
2023-02-08T20:56:53.030Z,102414.25
2023-02-08T20:59:21.126Z,102419.75
2023-02-08T21:01:49.124Z,102416.16
2023-02-08T21:04:18.063Z,102423.16
2023-02-08T21:06:47.419Z,102417.09
2023-02-08T21:09:16.267Z,102415.44
2023-02-08T21:11:44.345Z,102427.09
2023-02-08T21:14:13.709Z,102424.41
2023-02-08T21:16:41.697Z,102427.06
2023-02-08T21:19:10.854Z,102431.44
2023-02-08T21:21:38.805Z,102420.81
2023-02-08T21:24:08.567Z,102427.81
2023-02-08T21:26:36.470Z,102429.03
2023-02-08T21:29:06.163Z,102389.88
2023-02-08T21:31:34.384Z,102430.50
2023-02-08T21:34:02.691Z,102431.25
2023-02-08T21:36:30.710Z,102418.44
2023-02-08T21:38:58.714Z,102414.16
2023-02-08T21:41:29.112Z,102440.50
2023-02-08T21:43:58.199Z,102438.97
2023-02-08T21:46:27.798Z,102432.13
2023-02-08T21:49:13.074Z,102433.94
2023-02-08T21:51:58.516Z,102442.84
2023-02-08T21:54:45.855Z,102442.97
2023-02-08T21:57:17.890Z,102436.97
2023-02-08T21:59:45.932Z,102436.75
2023-02-08T22:02:15.625Z,102443.97
2023-02-08T22:05:00.744Z,102441.38
2023-02-08T22:07:28.925Z,102421.69
2023-02-08T22:09:56.942Z,102446.81
2023-02-08T22:12:26.287Z,102446.66
2023-02-08T22:14:54.223Z,102448.34
2023-02-08T22:17:22.266Z,102448.25
2023-02-08T22:19:50.238Z,102458.72
2023-02-08T22:22:18.206Z,102461.38
2023-02-08T22:24:46.164Z,102456.19
2023-02-08T22:27:14.105Z,102451.72
2023-02-08T22:29:43.460Z,102467.38
2023-02-08T22:32:12.666Z,102453.22
2023-02-08T22:34:40.645Z,102458.50
2023-02-08T22:37:08.720Z,102459.22
2023-02-08T22:39:36.727Z,102460.25
2023-02-08T22:42:08.483Z,102459.56
2023-02-08T22:44:36.517Z,102455.97
2023-02-08T22:47:06.429Z,102432.34
2023-02-08T22:49:34.426Z,102449.75
2023-02-08T22:52:02.412Z,102451.56
2023-02-08T22:54:30.371Z,102447.38
2023-02-08T22:56:58.370Z,102452.97
2023-02-08T22:59:26.364Z,102444.31
2023-02-08T23:01:54.422Z,102454.84
2023-02-08T23:04:23.792Z,102452.31
2023-02-08T23:06:51.755Z,102449.81
2023-02-08T23:09:19.746Z,102459.69
2023-02-08T23:11:47.718Z,102454.53
2023-02-08T23:14:15.892Z,102452.97
2023-02-08T23:16:43.871Z,102454.84
2023-02-08T23:19:14.364Z,102459.31
2023-02-08T23:21:43.777Z,102459.50
2023-02-08T23:24:11.872Z,102461.31
2023-02-08T23:26:40.007Z,102465.75
2023-02-08T23:29:07.936Z,102458.84
2023-02-08T23:31:36.096Z,102456.25
2023-02-08T23:34:04.134Z,102454.53
2023-02-08T23:36:32.070Z,102453.75
2023-02-08T23:39:03.345Z,102453.94
2023-02-08T23:41:31.306Z,102448.91
2023-02-08T23:43:59.315Z,102463.78
2023-02-08T23:46:28.207Z,102461.19
2023-02-08T23:48:56.307Z,102462.06
2023-02-08T23:51:25.115Z,102455.91
2023-02-08T23:53:53.294Z,102462.09
2023-02-08T23:56:23.841Z,102452.47
2023-02-08T23:58:52.516Z,102463.06
